createdAt,value
2023-01-29T00:01:12.105Z,-0.36
2023-01-29T00:03:40.283Z,-0.34
2023-01-29T00:06:09.180Z,-0.29
2023-01-29T00:08:37.794Z,-0.27
2023-01-29T00:11:06.825Z,-0.25
2023-01-29T00:13:35.228Z,-0.23
2023-01-29T00:16:03.923Z,-0.26
2023-01-29T00:18:31.990Z,-0.22
2023-01-29T00:21:00.370Z,-0.20
2023-01-29T00:23:28.542Z,-0.21
2023-01-29T00:25:59.590Z,-0.14
2023-01-29T00:28:27.448Z,-0.10
2023-01-29T00:30:55.362Z,-0.07
2023-01-29T00:33:23.291Z,-0.04
2023-01-29T00:35:51.258Z,-0.04
2023-01-29T00:38:19.120Z,-0.01
2023-01-29T00:41:05.757Z,0.05
2023-01-29T00:43:52.429Z,0.16
2023-01-29T00:46:20.319Z,0.18
2023-01-29T00:48:48.375Z,0.17
2023-01-29T00:51:16.345Z,0.13
2023-01-29T00:53:44.312Z,0.12
2023-01-29T00:56:12.179Z,0.10
2023-01-29T00:58:40.463Z,0.10
2023-01-29T01:01:08.877Z,0.06
2023-01-29T01:03:42.336Z,0.00
2023-01-29T01:06:11.122Z,-0.07
2023-01-29T01:08:57.468Z,-0.15
2023-01-29T01:11:25.316Z,-0.37
2023-01-29T01:13:55.128Z,-0.47
2023-01-29T01:16:23.149Z,-0.52
2023-01-29T01:18:50.958Z,-0.56
2023-01-29T01:21:18.908Z,-0.55
2023-01-29T01:23:47.899Z,-0.59
2023-01-29T01:26:15.674Z,-0.59
2023-01-29T01:28:44.249Z,-0.59
2023-01-29T01:31:13.467Z,-0.62
2023-01-29T01:33:41.629Z,-0.62
2023-01-29T01:36:10.045Z,-0.63
2023-01-29T01:38:45.292Z,-0.63
2023-01-29T01:41:15.159Z,-0.61
2023-01-29T01:43:52.289Z,-0.64
2023-01-29T01:46:21.332Z,-0.64
2023-01-29T01:48:53.396Z,-0.63
2023-01-29T01:51:22.189Z,-0.63
2023-01-29T01:53:57.432Z,-0.64
2023-01-29T01:56:28.589Z,-0.65
2023-01-29T01:58:58.593Z,-0.68
2023-01-29T02:01:29.828Z,-0.76
2023-01-29T02:04:19.511Z,-0.84
2023-01-29T02:07:06.224Z,-0.85
2023-01-29T02:09:46.580Z,-0.82
2023-01-29T02:12:16.168Z,-0.78
2023-01-29T02:14:44.780Z,-0.73
2023-01-29T02:17:14.595Z,-0.69
2023-01-29T02:20:03.849Z,-0.63
2023-01-29T02:22:41.348Z,-0.59
2023-01-29T02:25:20.894Z,-0.59
2023-01-29T02:27:48.849Z,-0.67
2023-01-29T02:30:29.214Z,-0.69
2023-01-29T02:33:02.527Z,-0.69
2023-01-29T02:35:34.791Z,-0.71
2023-01-29T02:38:21.183Z,-0.75
2023-01-29T02:40:53.448Z,-0.78
2023-01-29T02:43:33.210Z,-0.82
2023-01-29T02:46:11.663Z,-0.91
2023-01-29T02:49:02.117Z,-0.93
2023-01-29T02:51:33.255Z,-0.91
2023-01-29T02:54:27.644Z,-0.87
2023-01-29T02:57:20.388Z,-0.86
2023-01-29T02:59:55.086Z,-0.86
2023-01-29T03:02:30.770Z,-0.89
2023-01-29T03:05:01.607Z,-0.90
2023-01-29T03:07:44.802Z,-0.92
2023-01-29T03:10:20.376Z,-0.93
2023-01-29T03:12:52.827Z,-0.94
2023-01-29T03:15:26.744Z,-0.94
2023-01-29T03:18:14.060Z,-0.96
2023-01-29T03:20:48.241Z,-0.96
2023-01-29T03:23:24.273Z,-0.99
2023-01-29T03:26:13.318Z,-1.01
2023-01-29T03:29:01.115Z,-1.04
2023-01-29T03:31:48.815Z,-1.08
2023-01-29T03:34:24.876Z,-1.11
2023-01-29T03:36:58.561Z,-1.14
2023-01-29T03:39:29.407Z,-1.13
2023-01-29T03:42:02.659Z,-1.14
2023-01-29T03:44:37.310Z,-1.17
2023-01-29T03:47:13.794Z,-1.16
2023-01-29T03:49:53.607Z,-1.08
2023-01-29T03:52:41.771Z,-1.05
2023-01-29T03:55:18.744Z,-1.03
2023-01-29T03:57:50.811Z,-1.00
2023-01-29T04:00:30.352Z,-0.94
2023-01-29T04:03:02.948Z,-0.89
2023-01-29T04:05:33.664Z,-0.86
2023-01-29T04:08:17.203Z,-0.85
2023-01-29T04:10:46.401Z,-0.79
2023-01-29T04:13:16.011Z,-0.73
2023-01-29T04:15:51.241Z,-0.66
2023-01-29T04:18:21.160Z,-0.58
2023-01-29T04:21:07.565Z,-0.52
2023-01-29T04:23:35.638Z,-0.48
2023-01-29T04:26:22.857Z,-0.47
2023-01-29T04:28:54.305Z,-0.43
2023-01-29T04:31:29.261Z,-0.42
2023-01-29T04:34:15.694Z,-0.43
2023-01-29T04:36:43.709Z,-0.43
2023-01-29T04:39:25.512Z,-0.48
2023-01-29T04:41:57.165Z,-0.54
2023-01-29T04:44:43.970Z,-0.57
2023-01-29T04:47:11.980Z,-0.58
2023-01-29T04:49:40.111Z,-0.59
2023-01-29T04:52:12.595Z,-0.57
2023-01-29T04:54:49.467Z,-0.57
2023-01-29T04:57:25.519Z,-0.57
2023-01-29T05:00:00.077Z,-0.57
2023-01-29T05:02:28.695Z,-0.57
2023-01-29T05:04:58.967Z,-0.58
2023-01-29T05:07:28.983Z,-0.63
2023-01-29T05:09:57.361Z,-0.66
2023-01-29T05:12:27.684Z,-0.70
2023-01-29T05:14:58.549Z,-0.72
2023-01-29T05:17:26.900Z,-0.75
2023-01-29T05:19:56.206Z,-0.76
2023-01-29T05:22:24.469Z,-0.75
2023-01-29T05:24:52.963Z,-0.77
2023-01-29T05:27:41.002Z,-0.78
2023-01-29T05:30:10.380Z,-0.77
2023-01-29T05:32:39.902Z,-0.76
2023-01-29T05:35:08.187Z,-0.74
2023-01-29T05:37:36.254Z,-0.74
2023-01-29T05:40:04.315Z,-0.78
2023-01-29T05:42:32.906Z,-0.83
2023-01-29T05:45:00.952Z,-0.85
2023-01-29T05:47:28.947Z,-0.86
2023-01-29T05:49:56.815Z,-0.87
2023-01-29T05:52:24.797Z,-0.87
2023-01-29T05:54:52.650Z,-0.86
2023-01-29T05:57:20.720Z,-0.85
2023-01-29T05:59:48.589Z,-0.85
2023-01-29T06:02:16.459Z,-0.85
2023-01-29T06:04:44.361Z,-0.84
2023-01-29T06:07:12.297Z,-0.82
2023-01-29T06:09:40.275Z,-0.79
2023-01-29T06:12:08.204Z,-0.76
2023-01-29T06:14:36.203Z,-0.75
2023-01-29T06:17:05.092Z,-0.76
2023-01-29T06:19:33.268Z,-0.82
2023-01-29T06:22:01.239Z,-0.79
2023-01-29T06:24:29.242Z,-0.78
2023-01-29T06:26:57.279Z,-0.77
2023-01-29T06:29:25.250Z,-0.78
2023-01-29T06:31:53.322Z,-0.75
2023-01-29T06:34:21.385Z,-0.71
2023-01-29T06:36:49.477Z,-0.67
2023-01-29T06:39:17.543Z,-0.62
2023-01-29T06:41:46.451Z,-0.58
2023-01-29T06:44:14.412Z,-0.54
2023-01-29T06:46:42.194Z,-0.51
2023-01-29T06:49:10.129Z,-0.47
2023-01-29T06:51:38.061Z,-0.45
2023-01-29T06:54:08.432Z,-0.43
2023-01-29T06:56:36.398Z,-0.42
2023-01-29T06:59:04.349Z,-0.40
2023-01-29T07:01:36.705Z,-0.37
2023-01-29T07:04:05.004Z,-0.34
2023-01-29T07:06:33.599Z,-0.32
2023-01-29T07:09:01.784Z,-0.29
2023-01-29T07:11:30.660Z,-0.26
2023-01-29T07:13:58.522Z,-0.24
2023-01-29T07:16:26.738Z,-0.23
2023-01-29T07:18:54.771Z,-0.23
2023-01-29T07:21:23.163Z,-0.24
2023-01-29T07:23:51.028Z,-0.25
2023-01-29T07:26:18.918Z,-0.27
2023-01-29T07:28:46.968Z,-0.28
2023-01-29T07:31:15.514Z,-0.31
2023-01-29T07:33:44.666Z,-0.36
2023-01-29T07:36:13.448Z,-0.40
2023-01-29T07:38:41.500Z,-0.38
2023-01-29T07:41:11.301Z,-0.42
2023-01-29T07:43:39.178Z,-0.39
2023-01-29T07:46:07.214Z,-0.40
2023-01-29T07:48:35.392Z,-0.39
2023-01-29T07:51:03.286Z,-0.35
2023-01-29T07:53:31.356Z,-0.30
2023-01-29T07:55:59.149Z,-0.24
2023-01-29T07:58:27.097Z,-0.21
2023-01-29T08:00:55.092Z,-0.18
2023-01-29T08:03:23.135Z,-0.14
2023-01-29T08:05:51.311Z,-0.10
2023-01-29T08:08:19.590Z,-0.07
2023-01-29T08:10:47.511Z,-0.07
2023-01-29T08:13:15.522Z,-0.05
2023-01-29T08:15:45.536Z,-0.07
2023-01-29T08:18:14.352Z,-0.06
2023-01-29T08:20:42.207Z,-0.08
2023-01-29T08:23:14.686Z,-0.10
2023-01-29T08:25:42.800Z,-0.10
2023-01-29T08:28:12.520Z,-0.10
2023-01-29T08:30:40.690Z,-0.10
2023-01-29T08:33:09.020Z,-0.08
2023-01-29T08:35:37.280Z,-0.06
2023-01-29T08:38:05.660Z,0.00
2023-01-29T08:40:34.689Z,0.05
2023-01-29T08:43:06.039Z,0.10
2023-01-29T08:45:35.814Z,0.13
2023-01-29T08:48:04.197Z,0.13
2023-01-29T08:50:33.185Z,0.10
2023-01-29T08:53:01.916Z,0.08
2023-01-29T08:55:30.052Z,0.14
2023-01-29T08:57:58.028Z,0.21
2023-01-29T09:00:26.090Z,0.27
2023-01-29T09:02:54.174Z,0.34
2023-01-29T09:05:22.231Z,0.40
2023-01-29T09:07:50.219Z,0.44
2023-01-29T09:10:19.194Z,0.50
2023-01-29T09:12:47.062Z,0.56
2023-01-29T09:15:15.466Z,0.64
2023-01-29T09:17:43.830Z,0.71
2023-01-29T09:20:11.922Z,0.79
2023-01-29T09:22:39.864Z,0.87
2023-01-29T09:25:08.272Z,0.96
2023-01-29T09:27:36.208Z,0.97
2023-01-29T09:30:04.812Z,1.04
2023-01-29T09:32:53.596Z,1.08
2023-01-29T09:35:23.054Z,1.07
2023-01-29T09:37:51.496Z,1.12
2023-01-29T09:40:29.227Z,1.20
2023-01-29T09:43:06.935Z,1.25
2023-01-29T09:45:37.068Z,1.30
2023-01-29T09:48:05.906Z,1.32
2023-01-29T09:50:40.082Z,1.34
2023-01-29T09:53:08.533Z,1.34
2023-01-29T09:55:41.434Z,1.31
2023-01-29T09:58:12.561Z,1.29
2023-01-29T10:00:46.271Z,1.27
2023-01-29T10:03:29.595Z,1.23
2023-01-29T10:06:16.548Z,1.23
2023-01-29T10:08:47.426Z,1.25
2023-01-29T10:11:26.686Z,1.25
2023-01-29T10:14:13.395Z,1.28
2023-01-29T10:16:53.698Z,1.30
2023-01-29T10:19:27.868Z,1.33
2023-01-29T10:21:55.650Z,1.37
2023-01-29T10:24:35.682Z,1.39
2023-01-29T10:27:06.110Z,1.42
2023-01-29T10:29:34.501Z,1.44
2023-01-29T10:32:05.227Z,1.46
2023-01-29T10:34:51.491Z,1.50
2023-01-29T10:37:24.285Z,1.54
2023-01-29T10:39:52.387Z,1.64
2023-01-29T10:42:26.074Z,1.74
2023-01-29T10:45:12.586Z,1.91
2023-01-29T10:47:56.221Z,2.09
2023-01-29T10:50:24.099Z,2.20
2023-01-29T10:53:01.403Z,2.26
2023-01-29T10:55:44.392Z,2.28
2023-01-29T10:58:35.503Z,2.28
2023-01-29T11:01:03.446Z,2.25
2023-01-29T11:03:32.139Z,2.24
2023-01-29T11:06:19.696Z,2.22
2023-01-29T11:08:47.656Z,2.22
2023-01-29T11:11:17.464Z,2.13
2023-01-29T11:13:48.308Z,2.06
2023-01-29T11:16:16.485Z,1.99
2023-01-29T11:18:52.393Z,1.88
2023-01-29T11:21:20.413Z,1.83
2023-01-29T11:23:48.892Z,1.81
2023-01-29T11:26:22.527Z,1.80
2023-01-29T11:28:51.523Z,1.79
2023-01-29T11:31:27.425Z,1.81
2023-01-29T11:34:03.606Z,1.82
2023-01-29T11:36:38.204Z,1.83
2023-01-29T11:39:20.021Z,1.81
2023-01-29T11:41:55.466Z,1.76
2023-01-29T11:44:34.083Z,1.70
2023-01-29T11:47:11.690Z,1.65
2023-01-29T11:49:41.395Z,1.61
2023-01-29T11:52:10.412Z,1.57
2023-01-29T11:54:47.159Z,1.57
2023-01-29T11:57:38.913Z,1.55
2023-01-29T12:00:15.255Z,1.54
2023-01-29T12:02:46.199Z,1.52
2023-01-29T12:05:16.314Z,1.52
2023-01-29T12:07:45.930Z,1.53
2023-01-29T12:10:36.013Z,1.53
2023-01-29T12:13:05.102Z,1.53
2023-01-29T12:15:33.066Z,1.50
2023-01-29T12:18:08.311Z,1.47
2023-01-29T12:20:39.999Z,1.43
2023-01-29T12:23:26.789Z,1.43
2023-01-29T12:25:59.357Z,1.43
2023-01-29T12:28:30.497Z,1.39
2023-01-29T12:31:10.597Z,1.35
2023-01-29T12:33:46.654Z,1.34
2023-01-29T12:36:19.596Z,1.31
2023-01-29T12:38:47.677Z,1.28
2023-01-29T12:41:17.790Z,1.28
2023-01-29T12:43:48.733Z,1.27
2023-01-29T12:46:39.808Z,1.29
2023-01-29T12:49:13.239Z,1.29
2023-01-29T12:51:46.017Z,1.29
2023-01-29T12:54:17.169Z,1.30
2023-01-29T12:56:48.210Z,1.33
2023-01-29T12:59:18.945Z,1.35
2023-01-29T13:02:03.198Z,1.36
2023-01-29T13:04:42.016Z,1.36
2023-01-29T13:07:12.106Z,1.35
2023-01-29T13:09:43.572Z,1.35
2023-01-29T13:12:16.875Z,1.35
2023-01-29T13:15:00.828Z,1.34
2023-01-29T13:17:41.192Z,1.34
2023-01-29T13:20:30.330Z,1.33
2023-01-29T13:23:02.411Z,1.33
2023-01-29T13:25:30.283Z,1.32
2023-01-29T13:27:58.286Z,1.31
2023-01-29T13:30:28.406Z,1.30
2023-01-29T13:33:09.653Z,1.28
2023-01-29T13:35:40.702Z,1.25
2023-01-29T13:38:23.409Z,1.23
2023-01-29T13:40:51.685Z,1.19
2023-01-29T13:43:21.914Z,1.15
2023-01-29T13:45:52.083Z,1.15
2023-01-29T13:48:32.097Z,1.13
2023-01-29T13:51:02.189Z,1.12
2023-01-29T13:53:42.049Z,1.11
2023-01-29T13:56:30.299Z,1.08
2023-01-29T13:58:59.181Z,1.01
2023-01-29T14:01:45.689Z,0.96
2023-01-29T14:04:19.505Z,0.86
2023-01-29T14:06:51.662Z,0.84
2023-01-29T14:09:37.701Z,0.82
2023-01-29T14:12:26.096Z,0.80
2023-01-29T14:14:56.938Z,0.79
2023-01-29T14:17:26.176Z,0.76
2023-01-29T14:20:13.951Z,0.73
2023-01-29T14:22:43.270Z,0.69
2023-01-29T14:25:17.876Z,0.62
2023-01-29T14:27:49.565Z,0.60
2023-01-29T14:30:19.156Z,0.59
2023-01-29T14:32:48.364Z,0.59
2023-01-29T14:35:21.240Z,0.60
2023-01-29T14:37:51.057Z,0.62
2023-01-29T14:40:24.073Z,0.62
2023-01-29T14:42:52.636Z,0.62
2023-01-29T14:45:25.672Z,0.63
2023-01-29T14:47:55.138Z,0.62
2023-01-29T14:50:28.917Z,0.59
2023-01-29T14:53:09.282Z,0.53
2023-01-29T14:55:45.086Z,0.51
2023-01-29T14:58:14.853Z,0.52
2023-01-29T15:00:45.175Z,0.52
2023-01-29T15:03:20.206Z,0.51
2023-01-29T15:05:49.198Z,0.51
2023-01-29T15:08:23.977Z,0.51
2023-01-29T15:11:13.616Z,0.51
2023-01-29T15:13:50.714Z,0.51
2023-01-29T15:16:26.029Z,0.50
2023-01-29T15:18:56.560Z,0.47
2023-01-29T15:21:24.530Z,0.45
2023-01-29T15:24:04.072Z,0.46
2023-01-29T15:26:32.250Z,0.49
2023-01-29T15:29:05.035Z,0.53
2023-01-29T15:31:35.363Z,0.57
2023-01-29T15:34:06.594Z,0.60
2023-01-29T15:36:36.706Z,0.62
2023-01-29T15:39:10.633Z,0.67
2023-01-29T15:41:38.592Z,0.72
2023-01-29T15:44:18.772Z,0.76
2023-01-29T15:46:57.857Z,0.83
2023-01-29T15:49:25.955Z,0.85
2023-01-29T15:51:58.833Z,0.86
2023-01-29T15:54:30.309Z,0.91
2023-01-29T15:56:59.108Z,0.93
2023-01-29T15:59:34.704Z,0.95
2023-01-29T16:02:21.332Z,0.91
2023-01-29T16:04:49.409Z,0.90
2023-01-29T16:07:17.475Z,0.90
2023-01-29T16:09:45.485Z,0.89
2023-01-29T16:12:13.926Z,0.89
2023-01-29T16:14:42.414Z,0.87
2023-01-29T16:17:30.488Z,0.84
2023-01-29T16:19:59.719Z,0.80
2023-01-29T16:22:33.250Z,0.77
2023-01-29T16:25:11.582Z,0.75
2023-01-29T16:27:43.310Z,0.71
2023-01-29T16:30:15.691Z,0.69
2023-01-29T16:32:43.865Z,0.68
2023-01-29T16:35:16.279Z,0.64
2023-01-29T16:37:48.060Z,0.62
2023-01-29T16:40:25.076Z,0.59
2023-01-29T16:43:06.976Z,0.57
2023-01-29T16:45:34.948Z,0.54
2023-01-29T16:48:22.781Z,0.52
2023-01-29T16:50:55.300Z,0.52
2023-01-29T16:53:25.373Z,0.52
2023-01-29T16:55:53.340Z,0.50
2023-01-29T16:58:30.648Z,0.49
2023-01-29T17:01:01.207Z,0.44
2023-01-29T17:03:31.683Z,0.43
2023-01-29T17:06:00.168Z,0.42
2023-01-29T17:08:32.954Z,0.41
2023-01-29T17:11:02.065Z,0.39
2023-01-29T17:13:38.418Z,0.39
2023-01-29T17:16:20.499Z,0.38
2023-01-29T17:18:48.592Z,0.36
2023-01-29T17:21:16.552Z,0.35
2023-01-29T17:23:44.452Z,0.34
2023-01-29T17:26:13.483Z,0.34
2023-01-29T17:28:41.796Z,0.35
2023-01-29T17:31:09.818Z,0.34
2023-01-29T17:33:42.338Z,0.33
2023-01-29T17:36:14.109Z,0.31
2023-01-29T17:38:42.375Z,0.30
2023-01-29T17:41:30.726Z,0.30
2023-01-29T17:43:59.003Z,0.29
2023-01-29T17:46:27.793Z,0.29
2023-01-29T17:48:55.962Z,0.29
2023-01-29T17:51:25.025Z,0.29
2023-01-29T17:53:53.230Z,0.28
2023-01-29T17:56:30.311Z,0.26
2023-01-29T17:58:58.185Z,0.27
2023-01-29T18:01:26.085Z,0.27
2023-01-29T18:03:53.942Z,0.26
2023-01-29T18:06:29.466Z,0.25
2023-01-29T18:08:57.395Z,0.22
2023-01-29T18:11:25.418Z,0.21
2023-01-29T18:13:53.376Z,0.21
2023-01-29T18:16:22.262Z,0.21
2023-01-29T18:18:51.062Z,0.20
2023-01-29T18:21:19.128Z,0.18
2023-01-29T18:23:47.091Z,0.18
2023-01-29T18:26:16.428Z,0.19
2023-01-29T18:28:44.282Z,0.18
2023-01-29T18:31:14.145Z,0.17
2023-01-29T18:33:42.356Z,0.16
2023-01-29T18:36:10.335Z,0.15
2023-01-29T18:38:38.494Z,0.14
2023-01-29T18:41:07.283Z,0.12
2023-01-29T18:43:35.259Z,0.09
2023-01-29T18:46:03.723Z,0.09
2023-01-29T18:48:31.803Z,0.10
2023-01-29T18:50:59.875Z,0.11
2023-01-29T18:53:27.963Z,0.09
2023-01-29T18:56:04.275Z,0.10
2023-01-29T18:58:35.574Z,0.08
2023-01-29T19:01:09.545Z,0.08
2023-01-29T19:03:38.565Z,0.06
2023-01-29T19:06:08.115Z,0.05
2023-01-29T19:08:36.751Z,0.05
2023-01-29T19:11:08.299Z,0.03
2023-01-29T19:13:37.098Z,-0.01
2023-01-29T19:16:12.670Z,-0.04
2023-01-29T19:18:40.631Z,-0.09
2023-01-29T19:21:09.348Z,-0.09
2023-01-29T19:23:37.370Z,-0.09
2023-01-29T19:26:05.857Z,-0.07
2023-01-29T19:28:33.821Z,-0.06
2023-01-29T19:31:02.114Z,-0.06
2023-01-29T19:33:30.177Z,-0.06
2023-01-29T19:35:59.176Z,-0.06
2023-01-29T19:38:28.057Z,-0.05
2023-01-29T19:40:55.919Z,-0.04
2023-01-29T19:43:23.999Z,-0.03
2023-01-29T19:45:57.189Z,-0.04
2023-01-29T19:48:26.693Z,-0.05
2023-01-29T19:50:55.685Z,-0.06
2023-01-29T19:53:24.167Z,-0.10
2023-01-29T19:56:02.476Z,-0.09
2023-01-29T19:58:30.761Z,-0.09
2023-01-29T20:00:59.883Z,-0.11
2023-01-29T20:03:29.352Z,-0.13
2023-01-29T20:06:04.848Z,-0.15
2023-01-29T20:08:33.178Z,-0.17
2023-01-29T20:11:01.574Z,-0.18
2023-01-29T20:13:29.527Z,-0.19
2023-01-29T20:15:57.611Z,-0.20
2023-01-29T20:18:25.564Z,-0.20
2023-01-29T20:20:53.594Z,-0.22
2023-01-29T20:23:36.604Z,-0.22
2023-01-29T20:26:09.814Z,-0.21
2023-01-29T20:28:38.135Z,-0.22
2023-01-29T20:31:06.664Z,-0.21
2023-01-29T20:33:36.622Z,-0.23
2023-01-29T20:36:06.758Z,-0.23
2023-01-29T20:38:34.891Z,-0.23
2023-01-29T20:41:10.463Z,-0.22
2023-01-29T20:43:38.519Z,-0.22
2023-01-29T20:46:06.667Z,-0.24
2023-01-29T20:48:35.216Z,-0.24
2023-01-29T20:51:08.126Z,-0.26
2023-01-29T20:53:37.008Z,-0.27
2023-01-29T20:56:05.385Z,-0.29
2023-01-29T20:58:33.542Z,-0.31
2023-01-29T21:01:01.935Z,-0.34
2023-01-29T21:03:29.871Z,-0.37
2023-01-29T21:05:59.253Z,-0.38
2023-01-29T21:08:27.650Z,-0.42
2023-01-29T21:10:55.740Z,-0.43
2023-01-29T21:13:23.698Z,-0.45
2023-01-29T21:15:51.667Z,-0.45
2023-01-29T21:18:20.141Z,-0.45
2023-01-29T21:20:51.629Z,-0.44
2023-01-29T21:23:19.671Z,-0.42
2023-01-29T21:25:48.247Z,-0.43
2023-01-29T21:28:16.742Z,-0.45
2023-01-29T21:30:44.999Z,-0.47
2023-01-29T21:33:13.100Z,-0.50
2023-01-29T21:35:41.151Z,-0.51
2023-01-29T21:38:09.530Z,-0.53
2023-01-29T21:40:37.499Z,-0.52
2023-01-29T21:43:16.021Z,-0.52
2023-01-29T21:45:44.548Z,-0.54
2023-01-29T21:48:12.595Z,-0.54
2023-01-29T21:50:40.548Z,-0.52
2023-01-29T21:53:08.509Z,-0.53
2023-01-29T21:55:36.489Z,-0.53
2023-01-29T21:58:04.557Z,-0.51
2023-01-29T22:00:32.609Z,-0.50
2023-01-29T22:03:00.601Z,-0.51
2023-01-29T22:05:29.490Z,-0.53
2023-01-29T22:07:57.408Z,-0.56
2023-01-29T22:10:25.651Z,-0.56
2023-01-29T22:12:53.886Z,-0.59
2023-01-29T22:15:23.891Z,-0.61
2023-01-29T22:17:52.238Z,-0.61
2023-01-29T22:20:20.550Z,-0.61
2023-01-29T22:22:48.659Z,-0.62
2023-01-29T22:25:20.087Z,-0.62
2023-01-29T22:27:48.186Z,-0.64
2023-01-29T22:30:16.783Z,-0.68
2023-01-29T22:32:44.947Z,-0.70
2023-01-29T22:35:13.007Z,-0.71
2023-01-29T22:37:40.870Z,-0.75
2023-01-29T22:40:09.424Z,-0.76
2023-01-29T22:42:37.319Z,-0.75
2023-01-29T22:45:05.594Z,-0.76
2023-01-29T22:47:33.987Z,-0.81
2023-01-29T22:50:01.947Z,-0.83
2023-01-29T22:52:38.298Z,-0.83
2023-01-29T22:55:07.778Z,-0.83
2023-01-29T22:57:36.095Z,-0.83
2023-01-29T23:00:08.360Z,-0.82
2023-01-29T23:02:36.740Z,-0.86
2023-01-29T23:05:05.011Z,-0.87
2023-01-29T23:07:33.105Z,-0.88
2023-01-29T23:10:01.064Z,-0.88
2023-01-29T23:12:29.449Z,-0.88
2023-01-29T23:14:57.511Z,-0.90
2023-01-29T23:17:25.483Z,-0.91
2023-01-29T23:19:53.343Z,-0.93
2023-01-29T23:22:21.322Z,-0.94
2023-01-29T23:24:49.295Z,-0.96
2023-01-29T23:27:17.259Z,-1.00
2023-01-29T23:29:46.346Z,-1.01
2023-01-29T23:32:18.831Z,-1.01
2023-01-29T23:34:46.668Z,-1.02
2023-01-29T23:37:14.670Z,-1.04
2023-01-29T23:39:42.525Z,-1.07
2023-01-29T23:42:10.426Z,-1.07
2023-01-29T23:44:40.262Z,-1.08
2023-01-29T23:47:08.696Z,-1.08
2023-01-29T23:49:36.761Z,-1.11
2023-01-29T23:52:04.730Z,-1.12
2023-01-29T23:54:32.697Z,-1.14
2023-01-29T23:57:00.668Z,-1.16
2023-01-29T23:59:29.155Z,-1.19
